createdAt,value
2019-05-13T00:00:14.124Z,7.90
2019-05-13T00:02:40.508Z,7.90
2019-05-13T00:05:07.661Z,7.90
2019-05-13T00:07:34.321Z,7.70
2019-05-13T00:10:00.855Z,7.60
2019-05-13T00:12:27.064Z,7.60
2019-05-13T00:14:53.968Z,7.60
2019-05-13T00:17:20.750Z,7.60
2019-05-13T00:19:47.429Z,7.60
2019-05-13T00:22:14.080Z,7.60
2019-05-13T00:24:41.065Z,7.70
2019-05-13T00:27:07.316Z,7.60
2019-05-13T00:29:34.250Z,7.50
2019-05-13T00:32:00.603Z,7.30
2019-05-13T00:34:27.313Z,7.20
2019-05-13T00:37:07.320Z,7.20
2019-05-13T00:39:24.438Z,7.20
2019-05-13T00:41:50.269Z,7.50
2019-05-13T00:44:16.629Z,7.70
2019-05-13T00:46:44.135Z,7.50
2019-05-13T00:49:13.022Z,7.50
2019-05-13T00:51:38.887Z,7.50
2019-05-13T00:54:06.698Z,7.40
2019-05-13T00:56:34.480Z,7.50
2019-05-13T00:59:03.534Z,7.40
2019-05-13T01:01:29.286Z,7.40
2019-05-13T01:03:55.920Z,7.50
2019-05-13T01:06:23.691Z,7.60
2019-05-13T01:08:50.427Z,7.50
2019-05-13T01:11:17.051Z,7.50
2019-05-13T01:13:43.702Z,7.60
2019-05-13T01:16:10.416Z,7.70
2019-05-13T01:18:36.992Z,7.60
2019-05-13T01:21:04.578Z,7.50
2019-05-13T01:23:31.073Z,7.60
2019-05-13T01:25:57.885Z,7.70
2019-05-13T01:28:24.370Z,7.60
2019-05-13T01:30:50.979Z,7.40
2019-05-13T01:33:17.648Z,7.20
2019-05-13T01:35:44.720Z,7.20
2019-05-13T01:38:13.483Z,7.20
2019-05-13T01:40:39.982Z,7.10
2019-05-13T01:43:06.669Z,6.90
2019-05-13T01:45:34.020Z,6.70
2019-05-13T01:48:01.284Z,6.70
2019-05-13T01:50:27.867Z,6.90
2019-05-13T01:52:54.193Z,7.10
2019-05-13T01:55:20.656Z,7.40
2019-05-13T01:57:47.266Z,7.60
2019-05-13T02:00:15.374Z,7.60
2019-05-13T02:02:44.192Z,7.40
2019-05-13T02:05:10.155Z,7.20
2019-05-13T02:07:36.722Z,7.00
2019-05-13T02:10:05.047Z,6.80
2019-05-13T02:12:33.877Z,6.60
2019-05-13T02:14:59.484Z,6.50
2019-05-13T02:17:26.960Z,6.40
2019-05-13T02:19:54.046Z,6.50
2019-05-13T02:22:20.660Z,6.90
2019-05-13T02:24:47.262Z,6.60
2019-05-13T02:27:14.202Z,6.40
2019-05-13T02:29:40.972Z,6.30
2019-05-13T02:32:07.620Z,6.50
2019-05-13T02:34:34.365Z,6.80
2019-05-13T02:37:03.292Z,6.90
2019-05-13T02:39:28.755Z,7.00
2019-05-13T02:41:54.994Z,6.90
2019-05-13T02:44:22.631Z,6.80
2019-05-13T02:46:52.288Z,6.60
2019-05-13T02:49:17.462Z,6.60
2019-05-13T02:51:43.973Z,6.60
2019-05-13T02:54:12.351Z,6.60
2019-05-13T02:56:41.575Z,6.70
2019-05-13T02:59:07.169Z,6.70
2019-05-13T03:01:33.825Z,6.70
2019-05-13T03:04:03.167Z,6.50
2019-05-13T03:06:28.769Z,6.60
2019-05-13T03:08:55.363Z,6.30
2019-05-13T03:11:22.839Z,6.30
2019-05-13T03:13:52.618Z,6.50
2019-05-13T03:16:22.899Z,6.60
2019-05-13T03:18:47.888Z,6.60
2019-05-13T03:21:14.290Z,6.60
2019-05-13T03:23:43.953Z,6.50
2019-05-13T03:26:08.810Z,6.60
2019-05-13T03:28:35.555Z,6.60
2019-05-13T03:31:06.735Z,6.50
2019-05-13T03:33:35.904Z,6.50
2019-05-13T03:35:58.237Z,6.60
2019-05-13T03:38:24.957Z,6.40
2019-05-13T03:40:53.811Z,6.40
2019-05-13T03:43:22.918Z,6.50
2019-05-13T03:45:52.633Z,6.60
2019-05-13T03:48:23.327Z,6.50
2019-05-13T03:50:49.306Z,6.30
2019-05-13T03:53:15.533Z,5.90
2019-05-13T03:55:43.373Z,6.00
2019-05-13T03:58:13.112Z,6.10
2019-05-13T04:00:38.748Z,6.20
2019-05-13T04:03:05.362Z,6.20
2019-05-13T04:05:33.420Z,6.10
2019-05-13T04:08:03.086Z,6.20
2019-05-13T04:10:28.897Z,6.20
2019-05-13T04:12:55.603Z,6.30
2019-05-13T04:15:23.732Z,6.40
2019-05-13T04:17:53.185Z,6.30
2019-05-13T04:20:18.620Z,6.40
2019-05-13T04:22:45.437Z,6.20
2019-05-13T04:25:12.801Z,6.30
2019-05-13T04:27:42.731Z,6.30
2019-05-13T04:30:08.962Z,6.30
2019-05-13T04:32:35.687Z,6.20
2019-05-13T04:35:04.213Z,6.30
2019-05-13T04:37:32.894Z,6.40
2019-05-13T04:39:59.204Z,6.40
2019-05-13T04:42:25.626Z,6.30
2019-05-13T04:44:53.188Z,6.40
2019-05-13T04:47:22.694Z,6.40
2019-05-13T04:49:48.095Z,6.50
2019-05-13T04:52:14.759Z,6.50
2019-05-13T04:54:43.677Z,6.50
2019-05-13T04:57:12.370Z,6.60
2019-05-13T04:59:44.185Z,6.60
2019-05-13T05:02:22.070Z,6.70
2019-05-13T05:05:03.269Z,6.80
2019-05-13T05:07:32.746Z,6.90
2019-05-13T05:10:17.757Z,6.90
2019-05-13T05:13:12.831Z,6.80
2019-05-13T05:15:54.533Z,6.70
2019-05-13T05:18:42.032Z,6.70
2019-05-13T05:21:22.853Z,6.80
2019-05-13T05:24:08.170Z,6.90
2019-05-13T05:26:56.215Z,7.00
2019-05-13T05:29:58.138Z,7.00
2019-05-13T05:32:47.770Z,7.00
2019-05-13T05:35:35.589Z,7.10
2019-05-13T05:38:40.409Z,7.20
2019-05-13T05:41:12.155Z,7.30
2019-05-13T05:43:45.177Z,7.30
2019-05-13T05:46:12.106Z,7.40
2019-05-13T05:48:42.050Z,7.30
2019-05-13T05:51:09.054Z,7.50
2019-05-13T05:53:39.099Z,7.40
2019-05-13T05:56:06.015Z,7.50
2019-05-13T05:58:33.600Z,7.50
2019-05-13T06:01:02.683Z,7.60
2019-05-13T06:03:32.771Z,7.90
2019-05-13T06:06:01.804Z,8.90
2019-05-13T06:08:28.001Z,10.40
2019-05-13T06:10:54.632Z,11.50
2019-05-13T06:13:21.786Z,12.10
2019-05-13T06:15:48.290Z,13.10
2019-05-13T06:18:14.663Z,13.10
2019-05-13T06:20:41.825Z,13.80
2019-05-13T06:23:08.338Z,14.00
2019-05-13T06:25:34.848Z,14.10
2019-05-13T06:28:01.798Z,13.60
2019-05-13T06:30:28.978Z,14.40
2019-05-13T06:32:56.343Z,13.70
2019-05-13T06:35:23.091Z,13.90
2019-05-13T06:37:51.885Z,12.60
2019-05-13T06:40:17.983Z,13.00
2019-05-13T06:42:44.611Z,13.50
2019-05-13T06:45:12.519Z,13.70
2019-05-13T06:47:41.166Z,14.20
2019-05-13T06:50:07.531Z,14.70
2019-05-13T06:52:34.047Z,14.70
2019-05-13T06:55:02.770Z,14.90
2019-05-13T06:57:32.263Z,15.00
2019-05-13T06:59:58.437Z,15.70
2019-05-13T07:02:25.154Z,16.60
2019-05-13T07:04:51.852Z,16.10
2019-05-13T07:07:18.482Z,16.10
2019-05-13T07:09:44.990Z,16.30
2019-05-13T07:12:11.659Z,16.90
2019-05-13T07:14:38.261Z,16.70
2019-05-13T07:17:04.512Z,16.90
2019-05-13T07:19:32.404Z,16.70
2019-05-13T07:21:59.026Z,16.60
2019-05-13T07:24:25.259Z,16.60
2019-05-13T07:26:52.458Z,17.00
2019-05-13T07:29:19.765Z,16.80
2019-05-13T07:31:46.421Z,17.20
2019-05-13T07:34:13.035Z,16.80
2019-05-13T07:36:42.142Z,16.70
2019-05-13T07:39:08.359Z,18.00
2019-05-13T07:41:39.295Z,18.20
2019-05-13T07:44:22.905Z,18.70
2019-05-13T07:46:52.079Z,18.50
2019-05-13T07:49:17.477Z,18.80
2019-05-13T07:51:44.103Z,19.00
2019-05-13T07:54:11.360Z,19.00
2019-05-13T07:56:38.603Z,19.00
2019-05-13T07:59:04.876Z,18.60
2019-05-13T08:01:32.700Z,18.80
2019-05-13T08:04:01.480Z,19.70
2019-05-13T08:06:27.598Z,19.60
2019-05-13T08:08:54.258Z,19.80
2019-05-13T08:11:22.416Z,19.20
2019-05-13T08:13:51.569Z,20.60
2019-05-13T08:16:17.442Z,21.40
2019-05-13T08:19:03.674Z,20.90
2019-05-13T08:21:32.071Z,20.10
2019-05-13T08:23:58.074Z,19.60
2019-05-13T08:26:24.355Z,20.90
2019-05-13T08:29:00.221Z,20.60
2019-05-13T08:31:21.420Z,19.30
2019-05-13T08:33:46.844Z,19.20
2019-05-13T08:36:13.493Z,20.40
2019-05-13T08:38:42.960Z,20.30
2019-05-13T08:41:09.917Z,20.90
2019-05-13T08:43:36.098Z,21.20
2019-05-13T08:46:02.998Z,21.70
2019-05-13T08:48:29.276Z,20.30
2019-05-13T08:50:55.758Z,20.90
2019-05-13T08:53:22.197Z,20.20
2019-05-13T08:55:48.631Z,20.10
2019-05-13T08:58:14.972Z,21.10
2019-05-13T09:00:48.180Z,21.20
2019-05-13T09:03:16.188Z,20.90
2019-05-13T09:05:42.609Z,20.40
2019-05-13T09:08:11.399Z,20.70
2019-05-13T09:10:37.514Z,21.00
2019-05-13T09:13:03.755Z,20.40
2019-05-13T09:15:31.654Z,20.70
2019-05-13T09:17:58.625Z,19.80
2019-05-13T09:20:24.994Z,19.90
2019-05-13T09:22:51.580Z,20.60
2019-05-13T09:25:18.120Z,22.10
2019-05-13T09:27:44.795Z,21.60
2019-05-13T09:30:31.610Z,22.80
2019-05-13T09:32:58.134Z,21.70
2019-05-13T09:35:24.856Z,23.30
2019-05-13T09:37:51.679Z,23.50
2019-05-13T09:40:18.015Z,22.40
2019-05-13T09:42:51.022Z,22.20
2019-05-13T09:45:13.259Z,21.80
2019-05-13T09:47:41.717Z,21.10
2019-05-13T09:50:08.928Z,20.40
2019-05-13T09:52:35.200Z,21.40
2019-05-13T09:55:03.449Z,22.10
2019-05-13T09:57:31.999Z,21.80
2019-05-13T09:59:57.785Z,22.20
2019-05-13T10:02:24.321Z,22.20
2019-05-13T10:04:51.670Z,22.50
2019-05-13T10:07:18.029Z,21.20
2019-05-13T10:09:48.213Z,21.40
2019-05-13T10:12:12.732Z,21.10
2019-05-13T10:14:39.127Z,21.00
2019-05-13T10:17:06.750Z,21.50
2019-05-13T10:19:33.319Z,21.00
2019-05-13T10:21:59.768Z,21.50
2019-05-13T10:24:26.022Z,21.90
2019-05-13T10:26:52.876Z,22.60
2019-05-13T10:29:22.212Z,22.50
2019-05-13T10:31:48.481Z,23.90
2019-05-13T10:34:14.812Z,24.10
2019-05-13T10:36:42.100Z,24.30
2019-05-13T10:39:08.919Z,23.20
2019-05-13T10:41:35.293Z,23.30
2019-05-13T10:44:03.047Z,23.60
2019-05-13T10:46:31.975Z,23.30
2019-05-13T10:48:57.677Z,22.20
2019-05-13T10:51:24.036Z,21.60
2019-05-13T10:53:52.990Z,22.00
2019-05-13T10:56:18.609Z,21.70
2019-05-13T10:58:44.885Z,20.70
2019-05-13T11:01:11.801Z,21.50
2019-05-13T11:03:38.548Z,22.30
2019-05-13T11:06:04.996Z,22.20
2019-05-13T11:08:33.047Z,22.40
2019-05-13T11:11:02.092Z,21.90
2019-05-13T11:13:47.857Z,22.60
2019-05-13T11:15:58.299Z,22.90
2019-05-13T11:18:24.904Z,23.10
2019-05-13T11:20:51.131Z,22.70
2019-05-13T11:23:17.382Z,22.20
2019-05-13T11:25:43.647Z,22.50
2019-05-13T11:28:12.281Z,22.00
2019-05-13T11:30:38.358Z,22.40
2019-05-13T11:33:09.914Z,24.00
2019-05-13T11:35:33.030Z,25.80
2019-05-13T11:38:01.640Z,23.70
2019-05-13T11:40:27.415Z,22.30
2019-05-13T11:42:53.665Z,22.50
2019-05-13T11:45:22.308Z,23.60
2019-05-13T11:47:48.675Z,24.30
2019-05-13T11:50:15.774Z,24.30
2019-05-13T11:52:42.738Z,24.10
2019-05-13T11:55:13.033Z,23.60
2019-05-13T11:57:39.673Z,22.70
2019-05-13T12:00:12.879Z,22.60
2019-05-13T12:02:37.424Z,22.70
2019-05-13T12:05:06.340Z,22.50
2019-05-13T12:07:33.105Z,22.30
2019-05-13T12:09:59.435Z,22.60
2019-05-13T12:12:30.891Z,23.20
2019-05-13T12:15:25.494Z,23.70
2019-05-13T12:17:22.720Z,24.50
2019-05-13T12:19:49.284Z,22.90
2019-05-13T12:22:15.649Z,22.90
2019-05-13T12:24:42.432Z,23.10
2019-05-13T12:27:09.253Z,22.70
2019-05-13T12:29:36.822Z,21.90
2019-05-13T12:32:03.481Z,21.80
2019-05-13T12:34:39.507Z,22.10
2019-05-13T12:36:57.958Z,22.80
2019-05-13T12:39:24.234Z,23.30
2019-05-13T12:41:53.449Z,23.00
2019-05-13T12:44:18.532Z,22.50
2019-05-13T12:46:50.106Z,22.80
2019-05-13T12:49:14.284Z,23.20
2019-05-13T12:51:43.860Z,22.70
2019-05-13T12:54:08.909Z,22.30
2019-05-13T12:56:35.175Z,21.50
2019-05-13T12:59:03.031Z,21.80
2019-05-13T13:01:32.281Z,21.60
2019-05-13T13:03:57.529Z,21.90
2019-05-13T13:06:32.324Z,22.20
2019-05-13T13:08:52.468Z,21.80
2019-05-13T13:11:18.767Z,22.40
2019-05-13T13:14:05.278Z,22.10
2019-05-13T13:16:13.377Z,20.70
2019-05-13T13:18:43.222Z,19.30
2019-05-13T13:21:08.448Z,18.60
2019-05-13T13:23:35.047Z,18.20
2019-05-13T13:26:03.255Z,18.00
2019-05-13T13:28:33.784Z,17.90
2019-05-13T13:30:58.152Z,17.80
2019-05-13T13:33:24.406Z,17.70
2019-05-13T13:35:58.912Z,17.90
2019-05-13T13:38:24.376Z,18.00
2019-05-13T13:40:47.227Z,18.00
2019-05-13T13:43:14.786Z,18.00
2019-05-13T13:46:06.496Z,18.10
2019-05-13T13:48:12.959Z,17.90
2019-05-13T13:50:37.239Z,17.80
2019-05-13T13:53:03.540Z,18.10
2019-05-13T13:55:32.064Z,17.90
2019-05-13T13:57:57.825Z,17.80
2019-05-13T14:00:39.312Z,17.40
2019-05-13T14:02:54.255Z,17.70
2019-05-13T14:05:24.575Z,18.00
2019-05-13T14:07:48.575Z,18.00
2019-05-13T14:10:15.717Z,17.90
2019-05-13T14:12:41.983Z,17.90
2019-05-13T14:15:08.419Z,17.90
2019-05-13T14:17:35.057Z,17.70
2019-05-13T14:20:01.807Z,17.80
2019-05-13T14:22:28.250Z,17.50
2019-05-13T14:24:54.524Z,17.50
2019-05-13T14:27:22.420Z,17.50
2019-05-13T14:29:49.592Z,17.60
2019-05-13T14:32:16.912Z,17.70
2019-05-13T14:34:43.271Z,17.60
2019-05-13T14:37:11.684Z,17.70
2019-05-13T14:39:37.681Z,17.80
2019-05-13T14:42:04.025Z,17.80
2019-05-13T14:44:32.459Z,17.60
2019-05-13T14:46:58.360Z,17.70
2019-05-13T14:49:24.645Z,17.80
2019-05-13T14:51:52.274Z,17.50
2019-05-13T14:54:19.163Z,17.60
2019-05-13T14:56:45.542Z,17.80
2019-05-13T14:59:12.335Z,18.00
2019-05-13T15:01:41.173Z,17.80
2019-05-13T15:04:06.743Z,17.70
2019-05-13T15:06:33.541Z,17.80
2019-05-13T15:09:01.777Z,17.70
2019-05-13T15:11:27.828Z,17.60
2019-05-13T15:13:54.092Z,17.70
2019-05-13T15:16:22.389Z,17.60
2019-05-13T15:18:49.005Z,17.70
2019-05-13T15:21:15.239Z,17.70
2019-05-13T15:23:42.294Z,17.70
2019-05-13T15:26:11.043Z,17.50
2019-05-13T15:28:37.173Z,17.70
2019-05-13T15:31:03.532Z,17.80
2019-05-13T15:33:32.231Z,17.70
2019-05-13T15:35:57.881Z,17.90
2019-05-13T15:38:24.491Z,17.90
2019-05-13T15:40:52.220Z,17.80
2019-05-13T15:43:19.213Z,17.80
2019-05-13T15:45:45.863Z,17.60
2019-05-13T15:48:12.748Z,17.60
2019-05-13T15:50:39.255Z,17.60
2019-05-13T15:53:05.795Z,17.60
2019-05-13T15:55:32.376Z,17.60
2019-05-13T15:57:59.040Z,17.50
2019-05-13T16:00:25.864Z,17.40
2019-05-13T16:02:52.455Z,17.30
2019-05-13T16:05:18.935Z,17.20
2019-05-13T16:07:45.197Z,17.30
2019-05-13T16:10:12.269Z,17.40
2019-05-13T16:12:38.945Z,17.60
2019-05-13T16:15:12.397Z,17.30
2019-05-13T16:17:53.619Z,17.30
2019-05-13T16:20:06.315Z,17.10
2019-05-13T16:22:35.218Z,17.00
2019-05-13T16:25:04.581Z,17.00
2019-05-13T16:27:31.209Z,17.10
2019-05-13T16:29:58.840Z,17.30
2019-05-13T16:32:25.121Z,17.20
2019-05-13T16:34:52.109Z,17.20
2019-05-13T16:37:19.159Z,17.30
2019-05-13T16:39:45.435Z,17.10
2019-05-13T16:42:12.177Z,17.10
2019-05-13T16:44:39.144Z,17.10
2019-05-13T16:47:05.734Z,17.10
2019-05-13T16:49:32.405Z,17.10
2019-05-13T16:51:58.834Z,17.10
2019-05-13T16:54:25.292Z,17.10
2019-05-13T16:56:51.977Z,17.00
2019-05-13T16:59:18.493Z,17.10
2019-05-13T17:01:45.176Z,17.20
2019-05-13T17:04:12.565Z,17.10
2019-05-13T17:06:41.515Z,16.90
2019-05-13T17:09:08.037Z,16.90
2019-05-13T17:11:34.596Z,17.00
2019-05-13T17:14:03.032Z,16.90
2019-05-13T17:16:31.695Z,16.70
2019-05-13T17:18:57.947Z,16.70
2019-05-13T17:21:24.196Z,16.50
2019-05-13T17:23:52.359Z,16.50
2019-05-13T17:26:19.003Z,16.40
2019-05-13T17:28:45.603Z,16.20
2019-05-13T17:31:12.169Z,16.20
2019-05-13T17:33:38.440Z,16.20
2019-05-13T17:36:05.139Z,16.20
2019-05-13T17:38:32.255Z,16.20
2019-05-13T17:41:01.902Z,16.10
2019-05-13T17:43:27.865Z,16.00
2019-05-13T17:45:54.496Z,16.10
2019-05-13T17:48:26.707Z,16.10
2019-05-13T17:50:49.446Z,16.20
2019-05-13T17:53:16.051Z,16.10
2019-05-13T17:55:42.688Z,16.00
2019-05-13T17:58:11.491Z,15.90
2019-05-13T18:00:37.619Z,16.00
2019-05-13T18:03:04.075Z,16.00
2019-05-13T18:05:31.478Z,15.90
2019-05-13T18:07:59.179Z,15.90
2019-05-13T18:10:28.070Z,15.90
2019-05-13T18:12:54.328Z,15.90
2019-05-13T18:15:22.140Z,15.80
2019-05-13T18:17:48.548Z,15.80
2019-05-13T18:20:15.379Z,15.80
2019-05-13T18:22:42.138Z,15.70
2019-05-13T18:25:11.636Z,15.70
2019-05-13T18:27:37.998Z,15.60
2019-05-13T18:30:07.734Z,15.50
2019-05-13T18:32:34.023Z,15.50
2019-05-13T18:35:01.682Z,15.50
2019-05-13T18:37:28.645Z,15.40
2019-05-13T18:39:55.293Z,15.20
2019-05-13T18:42:22.499Z,15.20
2019-05-13T18:44:51.254Z,15.20
2019-05-13T18:47:17.221Z,15.20
2019-05-13T18:49:43.909Z,15.00
2019-05-13T18:52:11.577Z,15.00
2019-05-13T18:54:38.799Z,15.00
2019-05-13T18:57:05.510Z,15.00
2019-05-13T18:59:32.326Z,15.00
2019-05-13T19:01:58.691Z,15.00
2019-05-13T19:04:24.941Z,14.90
2019-05-13T19:06:51.772Z,14.80
2019-05-13T19:09:18.170Z,14.80
2019-05-13T19:11:44.432Z,14.70
2019-05-13T19:14:12.331Z,14.60
2019-05-13T19:16:38.735Z,14.50
2019-05-13T19:19:12.207Z,14.40
2019-05-13T19:21:33.195Z,14.40
2019-05-13T19:24:01.884Z,14.40
2019-05-13T19:26:27.487Z,14.30
2019-05-13T19:28:53.752Z,14.10
2019-05-13T19:31:22.032Z,13.80
2019-05-13T19:33:48.272Z,13.80
2019-05-13T19:36:14.908Z,13.70
2019-05-13T19:38:42.296Z,13.60
2019-05-13T19:41:09.011Z,13.60
2019-05-13T19:43:35.243Z,13.50
2019-05-13T19:46:01.911Z,13.50
2019-05-13T19:48:28.543Z,13.60
2019-05-13T19:50:54.890Z,13.40
2019-05-13T19:53:21.172Z,13.30
2019-05-13T19:55:47.439Z,13.30
2019-05-13T19:58:13.700Z,13.10
2019-05-13T20:00:42.130Z,13.10
2019-05-13T20:03:08.213Z,13.10
2019-05-13T20:05:35.042Z,13.10
2019-05-13T20:08:01.276Z,13.00
2019-05-13T20:10:27.547Z,13.00
2019-05-13T20:12:53.776Z,12.90
2019-05-13T20:15:22.077Z,12.80
2019-05-13T20:17:48.590Z,12.90
2019-05-13T20:20:15.008Z,12.70
2019-05-13T20:22:42.183Z,12.70
2019-05-13T20:25:12.993Z,12.70
2019-05-13T20:27:38.411Z,12.80
2019-05-13T20:30:05.260Z,12.70
2019-05-13T20:32:31.713Z,12.80
2019-05-13T20:34:57.961Z,12.70
2019-05-13T20:37:24.586Z,12.60
2019-05-13T20:39:51.596Z,12.60
2019-05-13T20:42:18.284Z,12.50
2019-05-13T20:44:44.884Z,12.50
2019-05-13T20:47:11.540Z,12.40
2019-05-13T20:49:38.158Z,12.30
2019-05-13T20:52:04.927Z,12.20
2019-05-13T20:54:31.621Z,12.20
2019-05-13T20:56:58.077Z,12.30
2019-05-13T20:59:24.331Z,12.20
2019-05-13T21:01:51.207Z,12.20
2019-05-13T21:04:17.955Z,12.20
2019-05-13T21:06:44.219Z,12.00
2019-05-13T21:09:14.676Z,12.10
2019-05-13T21:11:41.610Z,12.20
2019-05-13T21:14:07.426Z,12.20
2019-05-13T21:16:34.307Z,12.20
2019-05-13T21:19:01.870Z,12.10
2019-05-13T21:21:28.599Z,12.00
2019-05-13T21:23:55.200Z,11.90
2019-05-13T21:26:22.531Z,11.90
2019-05-13T21:28:48.887Z,12.00
2019-05-13T21:31:15.523Z,12.00
2019-05-13T21:33:41.739Z,11.90
2019-05-13T21:36:08.415Z,11.70
2019-05-13T21:38:35.027Z,11.60
2019-05-13T21:41:01.700Z,11.70
2019-05-13T21:43:28.050Z,11.80
2019-05-13T21:45:54.527Z,11.70
2019-05-13T21:48:21.738Z,11.70
2019-05-13T21:50:48.634Z,11.70
2019-05-13T21:53:14.931Z,11.50
2019-05-13T21:55:41.517Z,11.60
2019-05-13T21:58:07.807Z,11.50
2019-05-13T22:00:42.005Z,11.40
2019-05-13T22:03:08.440Z,11.40
2019-05-13T22:05:34.723Z,11.50
2019-05-13T22:08:01.726Z,11.30
2019-05-13T22:10:30.977Z,11.20
2019-05-13T22:12:56.907Z,11.30
2019-05-13T22:15:23.227Z,11.30
2019-05-13T22:17:51.277Z,11.20
2019-05-13T22:20:18.226Z,11.10
2019-05-13T22:22:44.488Z,11.10
2019-05-13T22:25:12.164Z,11.10
2019-05-13T22:27:41.165Z,11.10
2019-05-13T22:30:08.134Z,11.00
2019-05-13T22:32:34.587Z,10.90
2019-05-13T22:35:01.899Z,10.90
2019-05-13T22:37:31.196Z,10.80
2019-05-13T22:39:57.007Z,10.80
2019-05-13T22:42:23.615Z,10.90
2019-05-13T22:44:52.073Z,10.80
2019-05-13T22:47:18.100Z,10.70
2019-05-13T22:49:44.525Z,10.80
2019-05-13T22:52:11.435Z,10.60
2019-05-13T22:54:38.081Z,10.70
2019-05-13T22:57:05.598Z,10.70
2019-05-13T22:59:32.339Z,10.60
2019-05-13T23:01:59.212Z,10.60
2019-05-13T23:04:25.454Z,10.70
2019-05-13T23:06:52.133Z,10.60
2019-05-13T23:09:18.411Z,10.60
2019-05-13T23:11:44.644Z,10.40
2019-05-13T23:14:13.493Z,10.30
2019-05-13T23:16:41.719Z,10.50
2019-05-13T23:19:07.598Z,10.50
2019-05-13T23:21:33.931Z,10.30
2019-05-13T23:24:02.202Z,10.00
2019-05-13T23:26:28.860Z,9.90
2019-05-13T23:28:55.473Z,9.70
2019-05-13T23:31:22.960Z,9.60
2019-05-13T23:33:49.582Z,9.50
2019-05-13T23:36:16.267Z,9.50
2019-05-13T23:38:42.847Z,9.50
2019-05-13T23:41:11.489Z,9.40
2019-05-13T23:43:37.756Z,9.50
2019-05-13T23:46:05.238Z,9.60
2019-05-13T23:48:32.190Z,9.80
2019-05-13T23:51:01.191Z,9.90
2019-05-13T23:53:27.185Z,9.90
2019-05-13T23:55:53.887Z,9.80
2019-05-13T23:58:21.736Z,10.00
